sensor_id;sensor_type;location;lat;lon;timestamp;pressure;altitude;pressure_sealevel;temperature;humidity
67803;BME280;72185;51.378;-1.342;2024-03-25T00:01:57;99386.17;;;17.80;31.36
67803;BME280;72185;51.378;-1.342;2024-03-25T00:04:23;99384.75;;;17.82;31.27
67803;BME280;72185;51.378;-1.342;2024-03-25T00:06:49;99384.59;;;17.95;31.38
67803;BME280;72185;51.378;-1.342;2024-03-25T00:09:14;99379.81;;;18.00;31.36
67803;BME280;72185;51.378;-1.342;2024-03-25T00:11:40;99372.46;;;17.69;31.42
67803;BME280;72185;51.378;-1.342;2024-03-25T00:14:05;99361.72;;;17.71;31.38
67803;BME280;72185;51.378;-1.342;2024-03-25T00:16:31;99357.29;;;17.77;31.39
67803;BME280;72185;51.378;-1.342;2024-03-25T00:18:57;99354.13;;;17.74;31.38
67803;BME280;72185;51.378;-1.342;2024-03-25T00:21:22;99348.98;;;17.64;31.52
67803;BME280;72185;51.378;-1.342;2024-03-25T00:23:48;99342.98;;;17.59;31.54
67803;BME280;72185;51.378;-1.342;2024-03-25T00:26:13;99341.66;;;17.91;31.47
67803;BME280;72185;51.378;-1.342;2024-03-25T00:28:39;99338.97;;;17.65;31.48
67803;BME280;72185;51.378;-1.342;2024-03-25T00:31:05;99334.35;;;17.92;31.46
67803;BME280;72185;51.378;-1.342;2024-03-25T00:33:30;99331.43;;;17.71;31.43
67803;BME280;72185;51.378;-1.342;2024-03-25T00:35:56;99328.02;;;16.81;32.56
67803;BME280;72185;51.378;-1.342;2024-03-25T00:38:21;99329.71;;;17.07;32.08
67803;BME280;72185;51.378;-1.342;2024-03-25T00:40:47;99328.36;;;17.20;32.06
67803;BME280;72185;51.378;-1.342;2024-03-25T00:43:13;99322.25;;;17.21;32.18
67803;BME280;72185;51.378;-1.342;2024-03-25T00:45:38;99315.96;;;16.43;33.25
67803;BME280;72185;51.378;-1.342;2024-03-25T00:48:04;99311.52;;;16.74;33.06
67803;BME280;72185;51.378;-1.342;2024-03-25T00:50:29;99306.76;;;16.96;32.83
67803;BME280;72185;51.378;-1.342;2024-03-25T00:52:55;99304.26;;;16.47;33.09
67803;BME280;72185;51.378;-1.342;2024-03-25T00:55:21;99301.69;;;16.36;33.24
67803;BME280;72185;51.378;-1.342;2024-03-25T00:57:46;99301.98;;;16.98;32.82
67803;BME280;72185;51.378;-1.342;2024-03-25T01:00:12;99299.08;;;16.66;32.93
67803;BME280;72185;51.378;-1.342;2024-03-25T01:02:37;99296.13;;;16.84;33.06
67803;BME280;72185;51.378;-1.342;2024-03-25T01:05:03;99293.04;;;16.64;33.18
67803;BME280;72185;51.378;-1.342;2024-03-25T01:07:28;99287.73;;;16.31;33.42
67803;BME280;72185;51.378;-1.342;2024-03-25T01:09:54;99287.40;;;16.57;33.16
67803;BME280;72185;51.378;-1.342;2024-03-25T01:12:19;99277.77;;;15.98;33.75
67803;BME280;72185;51.378;-1.342;2024-03-25T01:14:45;99277.44;;;16.87;33.14
67803;BME280;72185;51.378;-1.342;2024-03-25T01:17:11;99272.72;;;16.31;33.71
67803;BME280;72185;51.378;-1.342;2024-03-25T01:19:36;99263.74;;;16.55;33.88
67803;BME280;72185;51.378;-1.342;2024-03-25T01:22:02;99252.39;;;15.87;34.08
67803;BME280;72185;51.378;-1.342;2024-03-25T01:24:27;99246.96;;;16.06;34.18
67803;BME280;72185;51.378;-1.342;2024-03-25T01:26:53;99243.81;;;16.04;34.15
67803;BME280;72185;51.378;-1.342;2024-03-25T01:29:19;99239.82;;;15.85;34.48
67803;BME280;72185;51.378;-1.342;2024-03-25T01:31:44;99237.03;;;16.51;34.02
67803;BME280;72185;51.378;-1.342;2024-03-25T01:34:10;99231.60;;;16.26;34.05
67803;BME280;72185;51.378;-1.342;2024-03-25T01:36:35;99235.57;;;16.41;34.24
67803;BME280;72185;51.378;-1.342;2024-03-25T01:39:01;99234.62;;;15.80;34.40
67803;BME280;72185;51.378;-1.342;2024-03-25T01:41:27;99230.99;;;16.50;33.79
67803;BME280;72185;51.378;-1.342;2024-03-25T01:43:52;99227.37;;;16.47;33.86
67803;BME280;72185;51.378;-1.342;2024-03-25T01:46:18;99226.89;;;16.00;34.18
67803;BME280;72185;51.378;-1.342;2024-03-25T01:48:44;99222.17;;;16.31;34.07
67803;BME280;72185;51.378;-1.342;2024-03-25T01:51:09;99215.44;;;16.19;34.24
67803;BME280;72185;51.378;-1.342;2024-03-25T01:53:34;99209.95;;;16.04;34.24
67803;BME280;72185;51.378;-1.342;2024-03-25T01:56:00;99209.62;;;16.10;34.69
67803;BME280;72185;51.378;-1.342;2024-03-25T01:58:26;99201.90;;;16.21;34.34
67803;BME280;72185;51.378;-1.342;2024-03-25T02:00:52;99197.60;;;16.18;34.37
67803;BME280;72185;51.378;-1.342;2024-03-25T02:03:17;99194.83;;;15.97;34.61
67803;BME280;72185;51.378;-1.342;2024-03-25T02:05:42;99191.97;;;16.13;34.46
67803;BME280;72185;51.378;-1.342;2024-03-25T02:08:09;99188.44;;;15.85;34.74
67803;BME280;72185;51.378;-1.342;2024-03-25T02:10:33;99186.12;;;15.83;34.81
67803;BME280;72185;51.378;-1.342;2024-03-25T02:12:59;99180.04;;;15.93;34.74
67803;BME280;72185;51.378;-1.342;2024-03-25T02:15:25;99174.93;;;16.17;34.48
67803;BME280;72185;51.378;-1.342;2024-03-25T02:17:50;99170.53;;;15.88;34.78
67803;BME280;72185;51.378;-1.342;2024-03-25T02:20:16;99168.15;;;16.01;34.65
67803;BME280;72185;51.378;-1.342;2024-03-25T02:22:41;99167.86;;;16.18;34.82
67803;BME280;72185;51.378;-1.342;2024-03-25T02:25:08;99165.79;;;15.75;34.75
67803;BME280;72185;51.378;-1.342;2024-03-25T02:27:33;99162.44;;;15.73;34.78
67803;BME280;72185;51.378;-1.342;2024-03-25T02:30:02;99159.24;;;16.08;34.63
67803;BME280;72185;51.378;-1.342;2024-03-25T02:32:23;99161.64;;;15.90;34.61
67803;BME280;72185;51.378;-1.342;2024-03-25T02:34:51;99158.27;;;15.93;34.83
67803;BME280;72185;51.378;-1.342;2024-03-25T02:37:15;99149.58;;;16.00;34.77
67803;BME280;72185;51.378;-1.342;2024-03-25T02:39:40;99141.74;;;16.07;34.69
67803;BME280;72185;51.378;-1.342;2024-03-25T02:42:06;99137.15;;;16.22;34.78
67803;BME280;72185;51.378;-1.342;2024-03-25T02:44:32;99129.43;;;16.37;34.30
67803;BME280;72185;51.378;-1.342;2024-03-25T02:46:57;99123.96;;;16.31;34.32
67803;BME280;72185;51.378;-1.342;2024-03-25T02:49:22;99119.43;;;16.08;34.43
67803;BME280;72185;51.378;-1.342;2024-03-25T02:51:48;99117.69;;;15.79;35.01
67803;BME280;72185;51.378;-1.342;2024-03-25T02:54:14;99111.60;;;15.90;34.64
67803;BME280;72185;51.378;-1.342;2024-03-25T02:56:40;99109.06;;;16.11;34.66
67803;BME280;72185;51.378;-1.342;2024-03-25T02:59:05;99101.91;;;16.00;34.53
67803;BME280;72185;51.378;-1.342;2024-03-25T03:01:30;99097.13;;;16.20;34.58
67803;BME280;72185;51.378;-1.342;2024-03-25T03:03:56;99093.86;;;16.17;34.57
67803;BME280;72185;51.378;-1.342;2024-03-25T03:06:21;99092.76;;;16.44;34.57
67803;BME280;72185;51.378;-1.342;2024-03-25T03:08:47;99086.28;;;16.23;34.52
67803;BME280;72185;51.378;-1.342;2024-03-25T03:11:12;99082.52;;;16.00;34.79
67803;BME280;72185;51.378;-1.342;2024-03-25T03:13:38;99078.04;;;16.01;34.84
67803;BME280;72185;51.378;-1.342;2024-03-25T03:16:04;99073.83;;;15.74;34.88
67803;BME280;72185;51.378;-1.342;2024-03-25T03:18:30;99068.56;;;15.75;34.89
67803;BME280;72185;51.378;-1.342;2024-03-25T03:20:54;99062.18;;;16.06;34.77
67803;BME280;72185;51.378;-1.342;2024-03-25T03:23:20;99058.20;;;15.77;34.85
67803;BME280;72185;51.378;-1.342;2024-03-25T03:25:46;99053.20;;;16.12;34.68
67803;BME280;72185;51.378;-1.342;2024-03-25T03:28:11;99048.77;;;16.13;34.68
67803;BME280;72185;51.378;-1.342;2024-03-25T03:30:37;99042.49;;;15.85;34.71
67803;BME280;72185;51.378;-1.342;2024-03-25T03:33:03;99038.81;;;16.16;34.65
67803;BME280;72185;51.378;-1.342;2024-03-25T03:35:28;99034.24;;;16.26;34.54
67803;BME280;72185;51.378;-1.342;2024-03-25T03:37:53;99033.19;;;15.94;34.57
67803;BME280;72185;51.378;-1.342;2024-03-25T03:40:19;99029.34;;;16.30;34.51
67803;BME280;72185;51.378;-1.342;2024-03-25T03:42:45;99025.44;;;15.73;34.88
67803;BME280;72185;51.378;-1.342;2024-03-25T03:45:10;99023.05;;;15.69;34.93
67803;BME280;72185;51.378;-1.342;2024-03-25T03:47:36;99017.54;;;16.04;34.82
67803;BME280;72185;51.378;-1.342;2024-03-25T03:50:01;99014.91;;;16.12;34.74
67803;BME280;72185;51.378;-1.342;2024-03-25T03:52:27;99014.11;;;15.90;34.73
67803;BME280;72185;51.378;-1.342;2024-03-25T03:54:52;99013.12;;;16.23;34.92
67803;BME280;72185;51.378;-1.342;2024-03-25T03:57:18;99006.97;;;16.18;34.43
67803;BME280;72185;51.378;-1.342;2024-03-25T03:59:44;99005.00;;;15.84;34.85
67803;BME280;72185;51.378;-1.342;2024-03-25T04:02:09;99007.20;;;15.67;35.03
67803;BME280;72185;51.378;-1.342;2024-03-25T04:04:35;99001.94;;;15.87;34.80
67803;BME280;72185;51.378;-1.342;2024-03-25T04:07:01;99002.24;;;16.00;34.85
67803;BME280;72185;51.378;-1.342;2024-03-25T04:09:27;98996.81;;;16.05;34.86
67803;BME280;72185;51.378;-1.342;2024-03-25T04:11:51;98992.88;;;16.01;34.68
67803;BME280;72185;51.378;-1.342;2024-03-25T04:14:17;98986.43;;;16.29;34.59
67803;BME280;72185;51.378;-1.342;2024-03-25T04:16:42;98986.32;;;15.91;35.03
67803;BME280;72185;51.378;-1.342;2024-03-25T04:19:08;98978.26;;;16.01;34.92
67803;BME280;72185;51.378;-1.342;2024-03-25T04:21:34;98981.41;;;15.92;35.02
67803;BME280;72185;51.378;-1.342;2024-03-25T04:23:59;98978.09;;;16.28;34.95
67803;BME280;72185;51.378;-1.342;2024-03-25T04:26:25;98973.90;;;16.23;34.65
67803;BME280;72185;51.378;-1.342;2024-03-25T04:28:50;98975.21;;;15.75;34.99
67803;BME280;72185;51.378;-1.342;2024-03-25T04:31:16;98975.43;;;16.05;34.92
67803;BME280;72185;51.378;-1.342;2024-03-25T04:33:41;98976.11;;;15.67;35.41
67803;BME280;72185;51.378;-1.342;2024-03-25T04:36:07;98966.92;;;16.24;34.72
67803;BME280;72185;51.378;-1.342;2024-03-25T04:38:33;98967.82;;;16.04;35.32
67803;BME280;72185;51.378;-1.342;2024-03-25T04:40:58;98966.67;;;15.87;35.15
67803;BME280;72185;51.378;-1.342;2024-03-25T04:43:24;98964.85;;;16.18;34.76
67803;BME280;72185;51.378;-1.342;2024-03-25T04:45:49;98964.55;;;15.84;35.07
67803;BME280;72185;51.378;-1.342;2024-03-25T04:48:15;98961.39;;;16.02;34.72
67803;BME280;72185;51.378;-1.342;2024-03-25T04:50:40;98958.81;;;16.10;34.90
67803;BME280;72185;51.378;-1.342;2024-03-25T04:53:06;98957.88;;;15.83;34.98
67803;BME280;72185;51.378;-1.342;2024-03-25T04:55:32;98953.71;;;16.06;34.96
67803;BME280;72185;51.378;-1.342;2024-03-25T04:57:57;98953.30;;;16.20;34.50
67803;BME280;72185;51.378;-1.342;2024-03-25T05:00:23;98947.59;;;16.35;34.61
67803;BME280;72185;51.378;-1.342;2024-03-25T05:02:48;98942.37;;;16.16;34.81
67803;BME280;72185;51.378;-1.342;2024-03-25T05:05:14;98938.23;;;15.86;34.91
67803;BME280;72185;51.378;-1.342;2024-03-25T05:07:39;98934.20;;;15.79;35.03
67803;BME280;72185;51.378;-1.342;2024-03-25T05:10:06;98928.47;;;15.82;34.97
67803;BME280;72185;51.378;-1.342;2024-03-25T05:12:31;98923.25;;;16.17;34.89
67803;BME280;72185;51.378;-1.342;2024-03-25T05:14:56;98924.25;;;15.93;35.01
67803;BME280;72185;51.378;-1.342;2024-03-25T05:17:22;98920.02;;;15.99;34.77
67803;BME280;72185;51.378;-1.342;2024-03-25T05:19:47;98916.86;;;16.04;34.99
67803;BME280;72185;51.378;-1.342;2024-03-25T05:22:13;98915.18;;;16.17;34.84
67803;BME280;72185;51.378;-1.342;2024-03-25T05:24:38;98918.97;;;16.31;34.67
67803;BME280;72185;51.378;-1.342;2024-03-25T05:27:04;98918.68;;;15.93;34.85
67803;BME280;72185;51.378;-1.342;2024-03-25T05:29:29;98916.29;;;16.23;34.53
67803;BME280;72185;51.378;-1.342;2024-03-25T05:31:57;98914.10;;;16.19;34.73
67803;BME280;72185;51.378;-1.342;2024-03-25T05:34:20;98915.82;;;16.35;34.67
67803;BME280;72185;51.378;-1.342;2024-03-25T05:36:46;98903.76;;;16.80;34.12
67803;BME280;72185;51.378;-1.342;2024-03-25T05:39:11;98900.45;;;16.42;34.54
67803;BME280;72185;51.378;-1.342;2024-03-25T05:41:37;98901.42;;;15.96;34.72
67803;BME280;72185;51.378;-1.342;2024-03-25T05:44:03;98896.78;;;16.00;34.83
67803;BME280;72185;51.378;-1.342;2024-03-25T05:46:28;98890.06;;;16.40;34.38
67803;BME280;72185;51.378;-1.342;2024-03-25T05:48:54;98896.05;;;16.42;34.79
67803;BME280;72185;51.378;-1.342;2024-03-25T05:51:19;98897.59;;;16.14;34.90
67803;BME280;72185;51.378;-1.342;2024-03-25T05:53:45;98896.24;;;16.68;34.35
67803;BME280;72185;51.378;-1.342;2024-03-25T05:56:10;98895.35;;;16.31;34.43
67803;BME280;72185;51.378;-1.342;2024-03-25T05:58:36;98897.43;;;15.99;34.85
67803;BME280;72185;51.378;-1.342;2024-03-25T06:01:02;98895.43;;;15.86;34.96
67803;BME280;72185;51.378;-1.342;2024-03-25T06:03:27;98881.90;;;16.26;34.83
67803;BME280;72185;51.378;-1.342;2024-03-25T06:05:53;98876.47;;;16.15;34.58
67803;BME280;72185;51.378;-1.342;2024-03-25T06:08:18;98878.27;;;16.03;34.75
67803;BME280;72185;51.378;-1.342;2024-03-25T06:10:44;98884.40;;;16.06;34.96
67803;BME280;72185;51.378;-1.342;2024-03-25T06:13:09;98879.59;;;16.32;34.64
67803;BME280;72185;51.378;-1.342;2024-03-25T06:15:35;98872.08;;;16.17;34.87
67803;BME280;72185;51.378;-1.342;2024-03-25T06:18:00;98876.07;;;16.28;34.73
67803;BME280;72185;51.378;-1.342;2024-03-25T06:20:26;98872.06;;;16.46;34.43
67803;BME280;72185;51.378;-1.342;2024-03-25T06:22:52;98874.13;;;16.15;34.78
67803;BME280;72185;51.378;-1.342;2024-03-25T06:25:18;98870.87;;;15.74;35.09
67803;BME280;72185;51.378;-1.342;2024-03-25T06:27:43;98866.71;;;16.13;34.90
67803;BME280;72185;51.378;-1.342;2024-03-25T06:30:09;98861.19;;;16.17;34.81
67803;BME280;72185;51.378;-1.342;2024-03-25T06:32:34;98854.28;;;15.92;34.82
67803;BME280;72185;51.378;-1.342;2024-03-25T06:34:59;98849.53;;;16.23;34.54
67803;BME280;72185;51.378;-1.342;2024-03-25T06:37:25;98854.36;;;16.08;34.65
67803;BME280;72185;51.378;-1.342;2024-03-25T06:39:51;98847.71;;;16.20;34.75
67803;BME280;72185;51.378;-1.342;2024-03-25T06:42:16;98839.92;;;16.20;34.78
67803;BME280;72185;51.378;-1.342;2024-03-25T06:44:42;98842.86;;;15.79;34.84
67803;BME280;72185;51.378;-1.342;2024-03-25T06:47:07;98842.09;;;15.59;35.20
67803;BME280;72185;51.378;-1.342;2024-03-25T06:49:33;98838.16;;;16.46;34.54
67803;BME280;72185;51.378;-1.342;2024-03-25T06:51:58;98839.34;;;16.06;35.01
67803;BME280;72185;51.378;-1.342;2024-03-25T06:54:24;98847.61;;;16.12;34.58
67803;BME280;72185;51.378;-1.342;2024-03-25T06:56:49;98847.00;;;16.14;34.89
67803;BME280;72185;51.378;-1.342;2024-03-25T06:59:15;98842.33;;;15.96;34.77
67803;BME280;72185;51.378;-1.342;2024-03-25T07:01:41;98845.79;;;16.31;34.53
67803;BME280;72185;51.378;-1.342;2024-03-25T07:04:06;98842.26;;;15.98;35.05
67803;BME280;72185;51.378;-1.342;2024-03-25T07:06:32;98837.96;;;16.24;34.71
67803;BME280;72185;51.378;-1.342;2024-03-25T07:08:57;98835.36;;;16.27;34.40
67803;BME280;72185;51.378;-1.342;2024-03-25T07:11:23;98828.48;;;16.03;34.92
67803;BME280;72185;51.378;-1.342;2024-03-25T07:13:48;98826.27;;;16.58;34.63
67803;BME280;72185;51.378;-1.342;2024-03-25T07:16:14;98823.08;;;16.36;34.32
67803;BME280;72185;51.378;-1.342;2024-03-25T07:18:40;98820.25;;;15.89;34.76
67803;BME280;72185;51.378;-1.342;2024-03-25T07:21:05;98817.20;;;16.34;34.63
67803;BME280;72185;51.378;-1.342;2024-03-25T07:23:31;98813.90;;;16.29;34.59
67803;BME280;72185;51.378;-1.342;2024-03-25T07:25:56;98813.88;;;16.02;34.94
67803;BME280;72185;51.378;-1.342;2024-03-25T07:28:22;98813.21;;;16.45;34.48
67803;BME280;72185;51.378;-1.342;2024-03-25T07:30:49;98805.05;;;16.34;34.56
67803;BME280;72185;51.378;-1.342;2024-03-25T07:33:13;98809.46;;;15.84;34.94
67803;BME280;72185;51.378;-1.342;2024-03-25T07:35:39;98812.39;;;16.19;34.72
67803;BME280;72185;51.378;-1.342;2024-03-25T07:38:04;98809.82;;;16.27;34.56
67803;BME280;72185;51.378;-1.342;2024-03-25T07:40:30;98801.71;;;16.43;34.20
67803;BME280;72185;51.378;-1.342;2024-03-25T07:42:55;98796.92;;;16.60;34.24
67803;BME280;72185;51.378;-1.342;2024-03-25T07:45:21;98793.19;;;16.12;34.48
67803;BME280;72185;51.378;-1.342;2024-03-25T07:47:46;98792.05;;;16.22;34.44
67803;BME280;72185;51.378;-1.342;2024-03-25T07:50:12;98781.73;;;16.39;34.43
67803;BME280;72185;51.378;-1.342;2024-03-25T07:52:38;98776.86;;;16.08;34.62
67803;BME280;72185;51.378;-1.342;2024-03-25T07:55:04;98777.71;;;15.03;33.90
67803;BME280;72185;51.378;-1.342;2024-03-25T07:57:29;98775.04;;;16.94;33.20
67803;BME280;72185;51.378;-1.342;2024-03-25T07:59:54;98773.37;;;17.09;33.34
67803;BME280;72185;51.378;-1.342;2024-03-25T08:02:20;98770.80;;;16.59;33.78
67803;BME280;72185;51.378;-1.342;2024-03-25T08:04:46;98766.23;;;16.08;34.57
67803;BME280;72185;51.378;-1.342;2024-03-25T08:07:11;98769.95;;;16.35;34.56
67803;BME280;72185;51.378;-1.342;2024-03-25T08:09:37;98764.31;;;16.43;34.29
67803;BME280;72185;51.378;-1.342;2024-03-25T08:12:03;98764.28;;;16.16;34.33
67803;BME280;72185;51.378;-1.342;2024-03-25T08:14:28;98758.77;;;16.11;34.55
67803;BME280;72185;51.378;-1.342;2024-03-25T08:16:54;98758.17;;;16.31;34.57
67803;BME280;72185;51.378;-1.342;2024-03-25T08:19:19;98751.80;;;16.18;34.44
67803;BME280;72185;51.378;-1.342;2024-03-25T08:21:45;98753.56;;;16.30;34.56
67803;BME280;72185;51.378;-1.342;2024-03-25T08:24:10;98752.33;;;16.09;34.86
67803;BME280;72185;51.378;-1.342;2024-03-25T08:26:36;98749.26;;;16.14;34.75
67803;BME280;72185;51.378;-1.342;2024-03-25T08:29:02;98755.74;;;16.21;34.68
67803;BME280;72185;51.378;-1.342;2024-03-25T08:31:27;98755.04;;;15.95;35.00
67803;BME280;72185;51.378;-1.342;2024-03-25T08:33:53;98754.27;;;16.23;34.65
67803;BME280;72185;51.378;-1.342;2024-03-25T08:36:18;98752.82;;;16.40;34.46
67803;BME280;72185;51.378;-1.342;2024-03-25T08:38:44;98753.36;;;16.83;33.64
67803;BME280;72185;51.378;-1.342;2024-03-25T08:41:09;98749.88;;;16.33;34.33
67803;BME280;72185;51.378;-1.342;2024-03-25T08:43:35;98750.37;;;16.44;34.09
67803;BME280;72185;51.378;-1.342;2024-03-25T08:46:00;98748.06;;;15.91;34.63
67803;BME280;72185;51.378;-1.342;2024-03-25T08:48:26;98753.73;;;16.21;34.68
67803;BME280;72185;51.378;-1.342;2024-03-25T08:50:52;98751.17;;;16.80;34.02
67803;BME280;72185;51.378;-1.342;2024-03-25T08:53:17;98743.25;;;16.56;33.89
67803;BME280;72185;51.378;-1.342;2024-03-25T08:55:45;98739.03;;;16.89;33.88
67803;BME280;72185;51.378;-1.342;2024-03-25T08:58:08;98740.55;;;16.07;34.82
67803;BME280;72185;51.378;-1.342;2024-03-25T09:00:34;98744.92;;;16.44;34.76
67803;BME280;72185;51.378;-1.342;2024-03-25T09:02:59;98744.55;;;16.16;34.47
67803;BME280;72185;51.378;-1.342;2024-03-25T09:05:25;98739.21;;;16.27;34.62
67803;BME280;72185;51.378;-1.342;2024-03-25T09:07:51;98739.03;;;16.28;34.54
67803;BME280;72185;51.378;-1.342;2024-03-25T09:10:16;98734.71;;;16.43;34.77
67803;BME280;72185;51.378;-1.342;2024-03-25T09:12:42;98735.37;;;15.71;35.44
67803;BME280;72185;51.378;-1.342;2024-03-25T09:15:07;98737.87;;;15.94;35.48
67803;BME280;72185;51.378;-1.342;2024-03-25T09:17:33;98733.29;;;15.51;35.72
67803;BME280;72185;51.378;-1.342;2024-03-25T09:19:59;98732.80;;;15.74;35.46
67803;BME280;72185;51.378;-1.342;2024-03-25T09:22:25;98729.71;;;15.48;35.73
67803;BME280;72185;51.378;-1.342;2024-03-25T09:24:50;98733.90;;;15.61;35.64
67803;BME280;72185;51.378;-1.342;2024-03-25T09:27:15;98728.01;;;15.79;35.45
67803;BME280;72185;51.378;-1.342;2024-03-25T09:29:41;98726.17;;;15.92;35.60
67803;BME280;72185;51.378;-1.342;2024-03-25T09:32:07;98720.02;;;15.46;35.86
67803;BME280;72185;51.378;-1.342;2024-03-25T09:34:32;98716.37;;;15.70;36.01
67803;BME280;72185;51.378;-1.342;2024-03-25T09:36:57;98715.60;;;15.61;35.77
67803;BME280;72185;51.378;-1.342;2024-03-25T09:39:23;98715.79;;;15.71;35.67
67803;BME280;72185;51.378;-1.342;2024-03-25T09:41:51;98710.76;;;15.43;35.93
67803;BME280;72185;51.378;-1.342;2024-03-25T09:44:14;98710.09;;;15.34;36.15
67803;BME280;72185;51.378;-1.342;2024-03-25T09:46:40;98708.21;;;15.49;35.91
67803;BME280;72185;51.378;-1.342;2024-03-25T09:49:06;98707.94;;;15.85;35.88
67803;BME280;72185;51.378;-1.342;2024-03-25T09:51:31;98714.58;;;15.49;36.30
67803;BME280;72185;51.378;-1.342;2024-03-25T09:53:57;98710.20;;;15.68;36.11
67803;BME280;72185;51.378;-1.342;2024-03-25T09:56:22;98712.82;;;15.41;36.19
67803;BME280;72185;51.378;-1.342;2024-03-25T09:58:48;98709.65;;;15.64;35.85
67803;BME280;72185;51.378;-1.342;2024-03-25T10:01:14;98703.40;;;16.03;35.64
67803;BME280;72185;51.378;-1.342;2024-03-25T10:03:39;98699.97;;;16.11;35.57
67803;BME280;72185;51.378;-1.342;2024-03-25T10:06:04;98704.81;;;15.24;36.05
67803;BME280;72185;51.378;-1.342;2024-03-25T10:08:30;98700.21;;;15.44;36.08
67803;BME280;72185;51.378;-1.342;2024-03-25T10:10:55;98694.42;;;15.56;36.26
67803;BME280;72185;51.378;-1.342;2024-03-25T10:13:21;98693.37;;;15.23;36.10
67803;BME280;72185;51.378;-1.342;2024-03-25T10:15:47;98694.47;;;15.51;36.10
67803;BME280;72185;51.378;-1.342;2024-03-25T10:18:12;98684.87;;;15.82;36.09
67803;BME280;72185;51.378;-1.342;2024-03-25T10:20:37;98675.43;;;15.67;35.92
67803;BME280;72185;51.378;-1.342;2024-03-25T10:23:03;98671.69;;;15.54;36.05
67803;BME280;72185;51.378;-1.342;2024-03-25T10:25:30;98668.28;;;15.55;36.26
67803;BME280;72185;51.378;-1.342;2024-03-25T10:27:55;98669.19;;;15.58;35.94
67803;BME280;72185;51.378;-1.342;2024-03-25T10:30:20;98662.16;;;15.82;35.89
67803;BME280;72185;51.378;-1.342;2024-03-25T10:32:45;98667.70;;;16.04;35.64
67803;BME280;72185;51.378;-1.342;2024-03-25T10:35:11;98656.08;;;16.18;35.45
67803;BME280;72185;51.378;-1.342;2024-03-25T10:37:38;98655.78;;;15.93;36.03
67803;BME280;72185;51.378;-1.342;2024-03-25T10:40:04;98649.76;;;15.67;35.82
67803;BME280;72185;51.378;-1.342;2024-03-25T10:42:27;98647.88;;;15.74;36.33
67803;BME280;72185;51.378;-1.342;2024-03-25T10:44:53;98642.99;;;15.50;36.28
67803;BME280;72185;51.378;-1.342;2024-03-25T10:47:21;98641.74;;;15.79;36.36
67803;BME280;72185;51.378;-1.342;2024-03-25T10:49:48;98635.87;;;15.59;36.24
67803;BME280;72185;51.378;-1.342;2024-03-25T10:52:11;98642.27;;;15.54;36.36
67803;BME280;72185;51.378;-1.342;2024-03-25T10:54:36;98634.00;;;15.78;36.05
67803;BME280;72185;51.378;-1.342;2024-03-25T10:57:03;98630.61;;;15.77;36.06
67803;BME280;72185;51.378;-1.342;2024-03-25T10:59:27;98620.99;;;15.77;36.09
67803;BME280;72185;51.378;-1.342;2024-03-25T11:01:52;98616.20;;;16.26;35.83
67803;BME280;72185;51.378;-1.342;2024-03-25T11:04:18;98612.98;;;15.92;36.02
67803;BME280;72185;51.378;-1.342;2024-03-25T11:06:43;98606.49;;;16.52;35.63
67803;BME280;72185;51.378;-1.342;2024-03-25T11:09:08;98605.15;;;16.41;35.46
67803;BME280;72185;51.378;-1.342;2024-03-25T11:11:34;98598.29;;;16.64;35.11
67803;BME280;72185;51.378;-1.342;2024-03-25T11:14:02;98592.16;;;16.37;35.44
67803;BME280;72185;51.378;-1.342;2024-03-25T11:16:29;98583.44;;;16.66;35.12
67803;BME280;72185;51.378;-1.342;2024-03-25T11:18:51;98585.23;;;15.89;35.82
67803;BME280;72185;51.378;-1.342;2024-03-25T11:21:25;98577.21;;;16.17;35.81
67803;BME280;72185;51.378;-1.342;2024-03-25T11:23:42;98576.71;;;16.45;35.50
67803;BME280;72185;51.378;-1.342;2024-03-25T11:26:18;98568.97;;;16.51;35.42
67803;BME280;72185;51.378;-1.342;2024-03-25T11:28:33;98561.92;;;16.62;35.32
67803;BME280;72185;51.378;-1.342;2024-03-25T11:30:58;98562.78;;;16.48;35.20
67803;BME280;72185;51.378;-1.342;2024-03-25T11:33:24;98556.41;;;16.48;35.28
67803;BME280;72185;51.378;-1.342;2024-03-25T11:35:49;98561.43;;;16.21;35.83
67803;BME280;72185;51.378;-1.342;2024-03-25T11:38:15;98553.25;;;16.28;35.74
67803;BME280;72185;51.378;-1.342;2024-03-25T11:40:42;98547.11;;;15.76;36.09
67803;BME280;72185;51.378;-1.342;2024-03-25T11:43:06;98547.30;;;16.18;35.84
67803;BME280;72185;51.378;-1.342;2024-03-25T11:45:31;98542.45;;;16.13;36.22
67803;BME280;72185;51.378;-1.342;2024-03-25T11:47:58;98535.47;;;15.90;36.14
67803;BME280;72185;51.378;-1.342;2024-03-25T11:50:22;98541.82;;;15.60;36.18
67803;BME280;72185;51.378;-1.342;2024-03-25T11:52:48;98534.43;;;15.70;36.16
67803;BME280;72185;51.378;-1.342;2024-03-25T11:55:16;98531.57;;;15.62;36.50
67803;BME280;72185;51.378;-1.342;2024-03-25T11:57:39;98523.22;;;15.79;36.28
67803;BME280;72185;51.378;-1.342;2024-03-25T12:00:07;98521.73;;;15.85;36.23
67803;BME280;72185;51.378;-1.342;2024-03-25T12:02:30;98518.32;;;15.76;35.99
67803;BME280;72185;51.378;-1.342;2024-03-25T12:04:56;98509.39;;;15.71;36.08
67803;BME280;72185;51.378;-1.342;2024-03-25T12:07:21;98515.01;;;15.89;35.84
67803;BME280;72185;51.378;-1.342;2024-03-25T12:09:47;98510.02;;;15.60;36.51
67803;BME280;72185;51.378;-1.342;2024-03-25T12:12:12;98497.26;;;16.15;36.08
67803;BME280;72185;51.378;-1.342;2024-03-25T12:14:38;98490.12;;;15.77;36.26
67803;BME280;72185;51.378;-1.342;2024-03-25T12:17:04;98489.39;;;16.02;35.87
67803;BME280;72185;51.378;-1.342;2024-03-25T12:19:29;98481.00;;;15.86;36.06
67803;BME280;72185;51.378;-1.342;2024-03-25T12:21:59;98480.95;;;15.79;36.11
67803;BME280;72185;51.378;-1.342;2024-03-25T12:24:24;98478.80;;;15.67;36.30
67803;BME280;72185;51.378;-1.342;2024-03-25T12:26:46;98471.70;;;15.71;36.04
67803;BME280;72185;51.378;-1.342;2024-03-25T12:29:11;98467.53;;;15.72;36.29
67803;BME280;72185;51.378;-1.342;2024-03-25T12:31:37;98466.68;;;15.87;36.05
67803;BME280;72185;51.378;-1.342;2024-03-25T12:34:09;98455.55;;;15.93;35.92
67803;BME280;72185;51.378;-1.342;2024-03-25T12:36:28;98459.27;;;15.54;36.13
67803;BME280;72185;51.378;-1.342;2024-03-25T12:38:54;98453.42;;;15.72;35.94
67803;BME280;72185;51.378;-1.342;2024-03-25T12:41:22;98456.69;;;15.63;36.30